createdAt,value
2023-09-08T00:02:05.624Z,20.62
2023-09-08T00:04:32.290Z,20.58
2023-09-08T00:06:58.899Z,20.54
2023-09-08T00:09:25.555Z,20.52
2023-09-08T00:11:52.094Z,20.48
2023-09-08T00:14:18.878Z,20.43
2023-09-08T00:16:45.537Z,20.42
2023-09-08T00:19:12.988Z,20.40
2023-09-08T00:21:39.613Z,20.38
2023-09-08T00:24:06.457Z,20.37
2023-09-08T00:26:33.651Z,20.33
2023-09-08T00:29:00.238Z,20.31
2023-09-08T00:31:26.793Z,20.29
2023-09-08T00:33:53.434Z,20.25
2023-09-08T00:36:20.171Z,20.23
2023-09-08T00:38:46.728Z,20.22
2023-09-08T00:41:13.284Z,20.21
2023-09-08T00:43:39.823Z,20.18
2023-09-08T00:46:07.908Z,20.15
2023-09-08T00:48:35.623Z,20.14
2023-09-08T00:51:03.255Z,20.12
2023-09-08T00:53:30.221Z,20.09
2023-09-08T00:55:57.534Z,20.05
2023-09-08T00:58:24.117Z,20.02
2023-09-08T01:00:50.704Z,19.98
2023-09-08T01:03:17.439Z,19.97
2023-09-08T01:05:45.559Z,19.91
2023-09-08T01:08:12.166Z,19.89
2023-09-08T01:10:38.783Z,19.86
2023-09-08T01:13:05.312Z,19.84
2023-09-08T01:15:31.917Z,19.82
2023-09-08T01:17:59.708Z,19.81
2023-09-08T01:21:04.524Z,19.79
2023-09-08T01:24:26.052Z,19.78
2023-09-08T01:26:52.684Z,19.77
2023-09-08T01:29:20.409Z,19.73
2023-09-08T01:31:47.897Z,19.71
2023-09-08T01:34:14.720Z,19.70
2023-09-08T01:36:41.316Z,19.72
2023-09-08T01:39:07.892Z,19.68
2023-09-08T01:41:34.517Z,19.68
2023-09-08T01:44:01.989Z,19.67
2023-09-08T01:46:28.545Z,19.66
2023-09-08T01:48:55.206Z,19.63
2023-09-08T01:51:21.816Z,19.61
2023-09-08T01:53:48.336Z,19.56
2023-09-08T01:56:14.871Z,19.53
2023-09-08T01:58:41.409Z,19.49
2023-09-08T02:01:08.168Z,19.46
2023-09-08T02:03:35.556Z,19.42
2023-09-08T02:06:02.130Z,19.38
2023-09-08T02:08:28.658Z,19.35
2023-09-08T02:10:55.201Z,19.31
2023-09-08T02:13:22.960Z,19.25
2023-09-08T02:15:49.777Z,19.21
2023-09-08T02:18:16.444Z,19.15
2023-09-08T02:20:42.989Z,19.12
2023-09-08T02:23:09.666Z,19.12
2023-09-08T02:25:36.228Z,19.10
2023-09-08T02:28:03.049Z,19.09
2023-09-08T02:30:29.738Z,19.06
2023-09-08T02:32:57.284Z,19.02
2023-09-08T02:35:25.073Z,19.00
2023-09-08T02:37:52.820Z,18.96
2023-09-08T02:40:20.392Z,18.94
2023-09-08T02:42:47.445Z,18.91
2023-09-08T02:45:14.198Z,18.88
2023-09-08T02:47:40.848Z,18.87
2023-09-08T02:50:09.190Z,18.84
2023-09-08T02:52:35.762Z,18.82
2023-09-08T02:55:02.457Z,18.79
2023-09-08T02:57:29.013Z,18.76
2023-09-08T02:59:55.614Z,18.73
2023-09-08T03:02:22.529Z,18.70
2023-09-08T03:04:49.233Z,18.69
2023-09-08T03:07:15.924Z,18.68
2023-09-08T03:09:43.809Z,18.65
2023-09-08T03:12:10.390Z,18.63
2023-09-08T03:14:36.978Z,18.62
2023-09-08T03:17:03.729Z,18.62
2023-09-08T03:19:31.701Z,18.61
2023-09-08T03:21:58.244Z,18.60
2023-09-08T03:24:25.986Z,18.59
2023-09-08T03:26:52.558Z,18.58
2023-09-08T03:29:19.161Z,18.58
2023-09-08T03:31:45.841Z,18.56
2023-09-08T03:34:12.617Z,18.55
2023-09-08T03:36:39.425Z,18.54
2023-09-08T03:39:06.164Z,18.52
2023-09-08T03:41:32.651Z,18.52
2023-09-08T03:43:59.943Z,18.50
2023-09-08T03:46:26.614Z,18.45
2023-09-08T03:48:53.572Z,18.41
2023-09-08T03:51:20.382Z,18.37
2023-09-08T03:53:47.031Z,18.34
2023-09-08T03:56:13.604Z,18.31
2023-09-08T03:58:40.558Z,18.31
2023-09-08T04:01:07.152Z,18.27
2023-09-08T04:03:34.153Z,18.26
2023-09-08T04:06:01.077Z,18.23
2023-09-08T04:08:27.790Z,18.21
2023-09-08T04:10:54.408Z,18.20
2023-09-08T04:13:21.548Z,18.17
2023-09-08T04:15:48.204Z,18.12
2023-09-08T04:18:15.215Z,18.09
2023-09-08T04:20:41.824Z,18.05
2023-09-08T04:23:08.414Z,18.03
2023-09-08T04:25:34.918Z,18.01
2023-09-08T04:28:01.498Z,18.01
2023-09-08T04:30:28.267Z,18.00
2023-09-08T04:32:54.927Z,17.99
2023-09-08T04:35:21.445Z,17.98
2023-09-08T04:37:48.011Z,17.96
2023-09-08T04:40:14.535Z,17.95
2023-09-08T04:42:41.267Z,17.95
2023-09-08T04:45:09.041Z,17.95
2023-09-08T04:47:36.957Z,17.95
2023-09-08T04:50:05.553Z,17.95
2023-09-08T04:52:32.250Z,17.95
2023-09-08T04:55:00.208Z,17.94
2023-09-08T04:57:27.256Z,17.93
2023-09-08T04:59:57.772Z,17.91
2023-09-08T05:02:24.773Z,17.92
2023-09-08T05:04:51.733Z,17.90
2023-09-08T05:07:18.359Z,17.90
2023-09-08T05:09:44.848Z,17.90
2023-09-08T05:12:11.722Z,17.88
2023-09-08T05:14:38.531Z,17.86
2023-09-08T05:17:05.245Z,17.85
2023-09-08T05:19:32.241Z,17.85
2023-09-08T05:21:58.838Z,17.83
2023-09-08T05:24:25.874Z,17.83
2023-09-08T05:26:52.503Z,17.85
2023-09-08T05:29:20.388Z,17.84
2023-09-08T05:31:46.978Z,17.86
2023-09-08T05:34:14.428Z,17.87
2023-09-08T05:36:41.497Z,17.88
2023-09-08T05:39:08.729Z,17.89
2023-09-08T05:41:35.338Z,17.90
2023-09-08T05:44:03.339Z,17.92
2023-09-08T05:46:30.218Z,17.94
2023-09-08T05:48:58.124Z,17.96
2023-09-08T05:51:25.356Z,17.97
2023-09-08T05:53:53.807Z,17.98
2023-09-08T05:56:20.928Z,18.00
2023-09-08T05:58:47.682Z,18.02
2023-09-08T06:01:14.387Z,18.03
2023-09-08T06:03:41.062Z,18.05
2023-09-08T06:06:07.803Z,18.07
2023-09-08T06:08:34.657Z,18.10
2023-09-08T06:11:02.098Z,18.15
2023-09-08T06:13:28.881Z,18.17
2023-09-08T06:15:55.540Z,18.21
2023-09-08T06:18:22.085Z,18.24
2023-09-08T06:20:49.392Z,18.27
2023-09-08T06:23:17.067Z,18.31
2023-09-08T06:25:43.607Z,18.33
2023-09-08T06:28:10.462Z,18.37
2023-09-08T06:30:37.797Z,18.39
2023-09-08T06:33:04.587Z,18.43
2023-09-08T06:35:31.261Z,18.45
2023-09-08T06:37:57.824Z,18.50
2023-09-08T06:40:25.712Z,18.54
2023-09-08T06:42:52.423Z,18.57
2023-09-08T06:45:28.807Z,18.62
2023-09-08T06:47:55.513Z,18.65
2023-09-08T06:50:23.064Z,18.69
2023-09-08T06:52:53.040Z,18.75
2023-09-08T06:55:20.000Z,18.80
2023-09-08T06:57:48.952Z,18.85
2023-09-08T07:00:16.107Z,18.92
2023-09-08T07:02:42.863Z,18.97
2023-09-08T07:05:11.131Z,19.03
2023-09-08T07:07:38.500Z,19.10
2023-09-08T07:10:05.607Z,19.16
2023-09-08T07:12:32.336Z,19.22
2023-09-08T07:14:59.253Z,19.29
2023-09-08T07:17:26.384Z,19.35
2023-09-08T07:19:53.749Z,19.44
2023-09-08T07:22:21.466Z,19.52
2023-09-08T07:24:48.156Z,19.60
2023-09-08T07:27:16.925Z,19.67
2023-09-08T07:29:43.626Z,19.74
2023-09-08T07:32:10.478Z,19.80
2023-09-08T07:34:37.100Z,19.85
2023-09-08T07:37:04.060Z,19.93
2023-09-08T07:39:30.663Z,20.00
2023-09-08T07:41:59.088Z,20.09
2023-09-08T07:44:28.697Z,20.15
2023-09-08T07:46:55.644Z,20.24
2023-09-08T07:49:22.298Z,20.32
2023-09-08T07:51:48.845Z,20.40
2023-09-08T07:54:15.657Z,20.48
2023-09-08T07:56:42.234Z,20.56
2023-09-08T07:59:08.927Z,20.64
2023-09-08T08:01:35.562Z,20.68
2023-09-08T08:04:02.234Z,20.72
2023-09-08T08:06:28.779Z,20.76
2023-09-08T08:08:55.380Z,20.80
2023-09-08T08:11:21.975Z,20.87
2023-09-08T08:13:48.671Z,20.95
2023-09-08T08:16:15.228Z,21.05
2023-09-08T08:18:42.010Z,21.17
2023-09-08T08:21:08.734Z,21.32
2023-09-08T08:23:35.443Z,21.48
2023-09-08T08:26:02.999Z,21.62
2023-09-08T08:28:29.532Z,21.80
2023-09-08T08:30:56.107Z,21.97
2023-09-08T08:33:22.877Z,22.16
2023-09-08T08:35:50.615Z,22.30
2023-09-08T08:38:17.187Z,22.45
2023-09-08T08:40:43.732Z,22.60
2023-09-08T08:43:10.614Z,22.75
2023-09-08T08:45:39.106Z,22.89
2023-09-08T08:48:08.432Z,23.05
2023-09-08T08:50:36.924Z,23.20
2023-09-08T08:53:03.658Z,23.36
2023-09-08T08:55:31.763Z,23.48
2023-09-08T08:58:05.082Z,23.60
2023-09-08T09:00:34.707Z,23.77
2023-09-08T09:03:12.099Z,23.93
2023-09-08T09:05:44.639Z,24.05
2023-09-08T09:08:14.304Z,24.18
2023-09-08T09:10:40.811Z,24.32
2023-09-08T09:13:07.341Z,24.46
2023-09-08T09:15:33.993Z,24.64
2023-09-08T09:18:07.783Z,24.87
2023-09-08T09:20:35.322Z,25.19
2023-09-08T09:23:02.091Z,25.51
2023-09-08T09:25:31.298Z,25.82
2023-09-08T09:28:00.245Z,26.12
2023-09-08T09:30:27.720Z,26.46
2023-09-08T09:33:05.307Z,26.81
2023-09-08T09:35:49.267Z,27.07
2023-09-08T09:38:15.806Z,27.24
2023-09-08T09:40:42.465Z,27.36
2023-09-08T09:43:09.570Z,27.49
2023-09-08T09:45:38.002Z,27.68
2023-09-08T09:48:05.729Z,27.91
2023-09-08T09:50:34.169Z,28.11
2023-09-08T09:53:03.127Z,28.31
2023-09-08T09:55:29.876Z,28.44
2023-09-08T09:57:58.237Z,28.56
2023-09-08T10:00:26.820Z,28.70
2023-09-08T10:02:54.982Z,28.86
2023-09-08T10:05:22.069Z,28.91
2023-09-08T10:07:48.865Z,28.95
2023-09-08T10:10:16.749Z,29.04
2023-09-08T10:12:50.190Z,29.16
2023-09-08T10:15:21.600Z,29.33
2023-09-08T10:17:53.762Z,29.55
2023-09-08T10:20:21.334Z,29.78
2023-09-08T10:22:53.882Z,29.97
2023-09-08T10:25:22.306Z,30.14
2023-09-08T10:27:49.581Z,30.26
2023-09-08T10:30:17.535Z,30.38
2023-09-08T10:32:44.507Z,30.49
2023-09-08T10:35:11.631Z,30.60
2023-09-08T10:37:38.145Z,30.69
2023-09-08T10:40:22.385Z,30.72
2023-09-08T10:42:49.698Z,30.72
2023-09-08T10:45:18.976Z,30.68
2023-09-08T10:47:48.592Z,30.63
2023-09-08T10:50:19.425Z,30.57
2023-09-08T10:53:04.613Z,30.50
2023-09-08T10:55:40.321Z,30.39
2023-09-08T10:58:06.807Z,30.32
2023-09-08T11:00:52.504Z,30.25
2023-09-08T11:03:28.480Z,30.10
2023-09-08T11:05:55.256Z,29.99
2023-09-08T11:08:22.452Z,29.90
2023-09-08T11:10:49.941Z,29.85
2023-09-08T11:13:16.454Z,29.80
2023-09-08T11:15:43.176Z,29.79
2023-09-08T11:18:10.144Z,29.75
2023-09-08T11:20:36.796Z,29.73
2023-09-08T11:23:04.487Z,29.78
2023-09-08T11:25:31.085Z,29.83
2023-09-08T11:27:58.219Z,29.83
2023-09-08T11:30:26.206Z,29.87
2023-09-08T11:32:52.851Z,29.93
2023-09-08T11:35:19.741Z,30.04
2023-09-08T11:37:46.226Z,30.14
2023-09-08T11:40:13.684Z,30.22
2023-09-08T11:42:41.689Z,30.28
2023-09-08T11:45:08.750Z,30.32
2023-09-08T11:47:35.283Z,30.30
2023-09-08T11:50:03.488Z,30.31
2023-09-08T11:52:29.998Z,30.34
2023-09-08T11:55:06.312Z,30.35
2023-09-08T11:57:34.562Z,30.40
2023-09-08T12:00:02.574Z,30.43
2023-09-08T12:02:35.172Z,30.48
2023-09-08T12:05:02.549Z,30.55
2023-09-08T12:07:29.460Z,30.61
2023-09-08T12:09:56.102Z,30.64
2023-09-08T12:12:22.695Z,30.68
2023-09-08T12:14:49.158Z,30.72
2023-09-08T12:17:15.743Z,30.76
2023-09-08T12:19:42.269Z,30.85
2023-09-08T12:22:09.020Z,30.92
2023-09-08T12:24:49.712Z,31.00
2023-09-08T12:27:17.577Z,31.08
2023-09-08T12:30:04.619Z,31.12
2023-09-08T12:32:32.855Z,31.15
2023-09-08T12:35:00.547Z,31.17
2023-09-08T12:37:27.341Z,31.21
2023-09-08T12:39:54.282Z,31.26
2023-09-08T12:42:21.056Z,31.28
2023-09-08T12:44:48.733Z,31.29
2023-09-08T12:47:15.389Z,31.32
2023-09-08T12:49:41.923Z,31.36
2023-09-08T12:52:08.640Z,31.42
2023-09-08T12:54:35.149Z,31.47
2023-09-08T12:57:03.775Z,31.52
2023-09-08T12:59:31.872Z,31.55
2023-09-08T13:01:58.359Z,31.58
2023-09-08T13:04:24.944Z,31.62
2023-09-08T13:06:52.013Z,31.66
2023-09-08T13:09:18.668Z,31.69
2023-09-08T13:11:45.191Z,31.76
2023-09-08T13:14:11.750Z,31.80
2023-09-08T13:16:38.322Z,31.83
2023-09-08T13:19:05.217Z,31.86
2023-09-08T13:21:31.761Z,31.89
2023-09-08T13:23:58.283Z,31.92
2023-09-08T13:26:24.854Z,31.98
2023-09-08T13:28:51.434Z,32.02
2023-09-08T13:31:18.072Z,32.03
2023-09-08T13:33:45.008Z,32.06
2023-09-08T13:36:11.507Z,32.09
2023-09-08T13:38:38.692Z,32.13
2023-09-08T13:41:06.272Z,32.17
2023-09-08T13:43:32.897Z,32.19
2023-09-08T13:45:59.352Z,32.21
2023-09-08T13:48:26.311Z,32.26
2023-09-08T13:50:54.306Z,32.30
2023-09-08T13:53:21.906Z,32.35
2023-09-08T13:55:51.282Z,32.38
2023-09-08T13:58:20.592Z,32.41
2023-09-08T14:00:52.254Z,32.42
2023-09-08T14:05:52.840Z,32.44
2023-09-08T14:08:28.850Z,32.43
2023-09-08T14:13:37.093Z,32.43
2023-09-08T14:16:04.176Z,32.43
2023-09-08T14:18:31.008Z,32.43
2023-09-08T14:20:57.623Z,32.45
2023-09-08T14:23:24.156Z,32.48
2023-09-08T14:25:50.764Z,32.53
2023-09-08T14:28:17.385Z,32.57
2023-09-08T14:30:43.981Z,32.60
2023-09-08T14:33:10.642Z,32.60
2023-09-08T14:35:42.818Z,32.60
2023-09-08T14:38:09.487Z,32.62
2023-09-08T14:40:36.141Z,32.62
2023-09-08T14:43:02.737Z,32.63
2023-09-08T14:45:29.261Z,32.63
2023-09-08T14:47:56.379Z,32.62
2023-09-08T14:50:24.220Z,32.59
2023-09-08T14:52:50.823Z,32.56
2023-09-08T14:55:17.379Z,32.50
2023-09-08T14:57:43.959Z,32.43
2023-09-08T15:00:10.969Z,32.40
2023-09-08T15:02:37.582Z,32.33
2023-09-08T15:05:04.346Z,32.27
2023-09-08T15:07:30.855Z,32.24
2023-09-08T15:09:57.344Z,32.23
2023-09-08T15:12:23.924Z,32.19
2023-09-08T15:14:50.444Z,32.14
2023-09-08T15:17:16.983Z,32.11
2023-09-08T15:19:43.684Z,32.04
2023-09-08T15:22:10.207Z,31.98
2023-09-08T15:24:37.496Z,31.93
2023-09-08T15:27:04.419Z,31.92
2023-09-08T15:29:31.168Z,31.89
2023-09-08T15:31:57.893Z,31.87
2023-09-08T15:34:27.119Z,31.89
2023-09-08T15:36:54.115Z,31.87
2023-09-08T15:39:20.718Z,31.89
2023-09-08T15:41:47.424Z,31.90
2023-09-08T15:44:14.010Z,31.93
2023-09-08T15:46:40.826Z,31.96
2023-09-08T15:49:07.451Z,32.00
2023-09-08T15:51:34.121Z,32.01
2023-09-08T15:54:00.642Z,32.01
2023-09-08T15:56:27.178Z,32.02
2023-09-08T15:58:53.659Z,32.01
2023-09-08T16:01:20.417Z,32.02
2023-09-08T16:03:47.125Z,32.05
2023-09-08T16:06:14.037Z,32.02
2023-09-08T16:08:40.666Z,32.01
2023-09-08T16:11:07.773Z,31.96
2023-09-08T16:13:34.451Z,31.94
2023-09-08T16:16:01.373Z,31.92
2023-09-08T16:18:28.022Z,31.91
2023-09-08T16:20:54.610Z,31.88
2023-09-08T16:23:21.170Z,31.83
2023-09-08T16:25:47.973Z,31.79
2023-09-08T16:28:14.584Z,31.80
2023-09-08T16:30:41.172Z,31.80
2023-09-08T16:33:08.033Z,31.80
2023-09-08T16:35:35.394Z,31.81
2023-09-08T16:38:01.890Z,31.80
2023-09-08T16:40:28.403Z,31.78
2023-09-08T16:42:54.907Z,31.74
2023-09-08T16:45:21.511Z,31.76
2023-09-08T16:47:48.073Z,31.75
2023-09-08T16:50:14.678Z,31.73
2023-09-08T16:52:41.238Z,31.73
2023-09-08T16:55:08.007Z,31.74
2023-09-08T16:57:34.498Z,31.73
2023-09-08T17:00:01.195Z,31.70
2023-09-08T17:02:28.478Z,31.64
2023-09-08T17:04:55.140Z,31.58
2023-09-08T17:07:21.751Z,31.50
2023-09-08T17:09:48.364Z,31.42
2023-09-08T17:12:14.931Z,31.35
2023-09-08T17:14:41.442Z,31.29
2023-09-08T17:17:07.957Z,31.22
2023-09-08T17:19:34.436Z,31.16
2023-09-08T17:22:01.093Z,31.07
2023-09-08T17:24:27.751Z,30.94
2023-09-08T17:26:57.948Z,30.84
2023-09-08T17:29:24.569Z,30.74
2023-09-08T17:31:51.068Z,30.66
2023-09-08T17:34:21.790Z,30.57
2023-09-08T17:36:52.827Z,30.48
2023-09-08T17:39:19.340Z,30.38
2023-09-08T17:41:45.827Z,30.30
2023-09-08T17:44:12.387Z,30.22
2023-09-08T17:46:39.439Z,30.13
2023-09-08T17:49:06.309Z,30.04
2023-09-08T17:51:32.812Z,29.93
2023-09-08T17:53:59.342Z,29.84
2023-09-08T17:56:25.904Z,29.73
2023-09-08T17:58:52.468Z,29.63
2023-09-08T18:01:19.081Z,29.55
2023-09-08T18:03:48.846Z,29.46
2023-09-08T18:06:15.920Z,29.37
2023-09-08T18:08:42.444Z,29.30
2023-09-08T18:11:09.001Z,29.22
2023-09-08T18:13:35.755Z,29.15
2023-09-08T18:16:04.585Z,29.08
2023-09-08T18:18:31.938Z,29.00
2023-09-08T18:20:58.498Z,28.94
2023-09-08T18:23:25.019Z,28.87
2023-09-08T18:25:53.396Z,28.78
2023-09-08T18:28:20.086Z,28.69
2023-09-08T18:30:46.626Z,28.59
2023-09-08T18:33:13.179Z,28.47
2023-09-08T18:35:39.760Z,28.38
2023-09-08T18:38:06.560Z,28.30
2023-09-08T18:40:33.531Z,28.22
2023-09-08T18:43:00.516Z,28.12
2023-09-08T18:45:27.118Z,28.04
2023-09-08T18:47:53.679Z,27.95
2023-09-08T18:50:20.230Z,27.89
2023-09-08T18:52:46.756Z,27.82
2023-09-08T18:55:13.235Z,27.74
2023-09-08T18:57:39.734Z,27.67
2023-09-08T19:00:07.006Z,27.60
2023-09-08T19:02:33.861Z,27.52
2023-09-08T19:05:00.610Z,27.45
2023-09-08T19:07:28.381Z,27.39
2023-09-08T19:09:54.900Z,27.32
2023-09-08T19:12:21.485Z,27.27
2023-09-08T19:14:53.302Z,27.23
2023-09-08T19:17:19.842Z,27.17
2023-09-08T19:19:46.415Z,27.11
2023-09-08T19:22:13.267Z,27.06
2023-09-08T19:24:42.725Z,27.01
2023-09-08T19:27:09.258Z,26.95
2023-09-08T19:29:35.745Z,26.91
2023-09-08T19:32:02.459Z,26.82
2023-09-08T19:34:29.079Z,26.77
2023-09-08T19:36:55.585Z,26.70
2023-09-08T19:39:22.498Z,26.64
2023-09-08T19:41:49.125Z,26.58
2023-09-08T19:44:15.612Z,26.51
2023-09-08T19:46:42.246Z,26.44
2023-09-08T19:49:08.783Z,26.38
2023-09-08T19:51:35.390Z,26.31
2023-09-08T19:54:02.092Z,26.26
2023-09-08T19:56:29.545Z,26.20
2023-09-08T19:58:56.001Z,26.17
2023-09-08T20:01:22.813Z,26.13
2023-09-08T20:03:49.344Z,26.07
2023-09-08T20:06:16.584Z,26.02
2023-09-08T20:08:43.192Z,25.98
2023-09-08T20:11:10.109Z,25.93
2023-09-08T20:13:36.984Z,25.91
2023-09-08T20:16:06.106Z,25.84
2023-09-08T20:18:33.238Z,25.80
2023-09-08T20:21:01.074Z,25.76
2023-09-08T20:23:27.606Z,25.72
2023-09-08T20:25:54.146Z,25.70
2023-09-08T20:28:20.689Z,25.67
2023-09-08T20:31:04.972Z,25.61
2023-09-08T20:33:38.341Z,25.59
2023-09-08T20:36:05.824Z,25.53
2023-09-08T20:38:32.447Z,25.51
2023-09-08T20:40:59.141Z,25.47
2023-09-08T20:43:25.703Z,25.43
2023-09-08T20:45:55.804Z,25.39
2023-09-08T20:48:23.167Z,25.35
2023-09-08T20:50:59.210Z,25.30
2023-09-08T20:53:25.718Z,25.31
2023-09-08T20:55:52.245Z,25.27
2023-09-08T20:58:18.854Z,25.23
2023-09-08T21:00:45.435Z,25.20
2023-09-08T21:03:12.371Z,25.18
2023-09-08T21:05:38.935Z,25.16
2023-09-08T21:08:05.966Z,25.15
2023-09-08T21:10:33.201Z,25.11
2023-09-08T21:12:59.775Z,25.09
2023-09-08T21:15:26.370Z,25.07
2023-09-08T21:17:53.068Z,25.04
2023-09-08T21:20:19.712Z,25.02
2023-09-08T21:22:46.292Z,24.98
2023-09-08T21:25:12.810Z,24.92
2023-09-08T21:27:39.292Z,24.85
2023-09-08T21:30:06.661Z,24.82
2023-09-08T21:32:33.304Z,24.80
2023-09-08T21:34:59.897Z,24.77
2023-09-08T21:37:26.490Z,24.75
2023-09-08T21:39:52.994Z,24.73
2023-09-08T21:42:19.601Z,24.72
2023-09-08T21:44:46.384Z,24.71
2023-09-08T21:47:12.951Z,24.70
2023-09-08T21:49:39.523Z,24.68
2023-09-08T21:52:06.381Z,24.65
2023-09-08T21:54:32.920Z,24.64
2023-09-08T21:56:59.458Z,24.64
2023-09-08T21:59:26.208Z,24.61
2023-09-08T22:01:52.770Z,24.60
2023-09-08T22:04:19.445Z,24.60
2023-09-08T22:06:46.244Z,24.55
2023-09-08T22:09:12.737Z,24.52
2023-09-08T22:11:39.267Z,24.50
2023-09-08T22:14:05.752Z,24.49
2023-09-08T22:16:32.358Z,24.47
2023-09-08T22:18:58.887Z,24.44
2023-09-08T22:21:25.458Z,24.40
2023-09-08T22:23:52.191Z,24.38
2023-09-08T22:26:20.063Z,24.37
2023-09-08T22:28:50.442Z,24.36
2023-09-08T22:31:17.226Z,24.34
2023-09-08T22:33:44.200Z,24.33
2023-09-08T22:36:11.118Z,24.32
2023-09-08T22:38:37.750Z,24.31
2023-09-08T22:41:04.305Z,24.30
2023-09-08T22:43:30.788Z,24.28
2023-09-08T22:45:57.396Z,24.26
2023-09-08T22:48:23.984Z,24.24
2023-09-08T22:50:50.985Z,24.23
2023-09-08T22:53:18.446Z,24.20
2023-09-08T22:55:45.382Z,24.17
2023-09-08T22:58:16.130Z,24.16
2023-09-08T23:00:42.811Z,24.13
2023-09-08T23:03:09.471Z,24.12
2023-09-08T23:05:36.151Z,24.10
2023-09-08T23:08:02.745Z,24.08
2023-09-08T23:10:29.321Z,24.06
2023-09-08T23:12:56.084Z,24.07
2023-09-08T23:15:23.099Z,24.09
2023-09-08T23:17:49.741Z,24.09
2023-09-08T23:20:16.512Z,24.10
2023-09-08T23:22:44.377Z,24.10
2023-09-08T23:25:11.098Z,24.12
2023-09-08T23:27:37.833Z,24.14
2023-09-08T23:30:05.125Z,24.15
2023-09-08T23:32:31.676Z,24.15
2023-09-08T23:34:59.866Z,24.14
2023-09-08T23:37:26.433Z,24.17
2023-09-08T23:39:53.079Z,24.17
2023-09-08T23:42:19.626Z,24.17
2023-09-08T23:44:46.186Z,24.15
2023-09-08T23:47:12.748Z,24.14
2023-09-08T23:49:39.304Z,24.13
2023-09-08T23:52:05.847Z,24.13
2023-09-08T23:54:32.381Z,24.12
2023-09-08T23:56:59.097Z,24.10
2023-09-08T23:59:25.876Z,24.09
